Terminal Aerodrome Forecast
Issued by NWS

Home | Current Version | Previous Version | Text Only | Print | Product List | Glossary On
Versions: 1 2 3 4 5 6 7 8 9 10 11 12 13 14 15 16 17 18 19 20 21 22 23 24
000
FTUS41 KBTV 242323
TAFRUT
TAF
KRUT 242323Z 2500/2524 33008G16KT P6SM SCT015 OVC022
     FM250200 VRB03KT P6SM OVC025
     FM250400 14003KT P6SM SCT035 BKN120
     FM251400 29004KT P6SM SCT200
     FM252100 18006KT P6SM VCSH SCT050 BKN150
      AMD LTD TO CLD VIS AND WIND=

USA.gov is the U.S. government's official web portal to all federal, state and local government web resources and services.